sensor_id;sensor_type;location;lat;lon;timestamp;P1;durP1;ratioP1;P2;durP2;ratioP2
9783;SDS011;4931;44.874;-1.092;2022-09-29T00:02:50;10.85;;;1.70;;
9783;SDS011;4931;44.874;-1.092;2022-09-29T00:07:35;16.40;;;1.50;;
9783;SDS011;4931;44.874;-1.092;2022-09-29T00:12:21;11.25;;;1.90;;
9783;SDS011;4931;44.874;-1.092;2022-09-29T00:17:08;11.95;;;1.52;;
9783;SDS011;4931;44.874;-1.092;2022-09-29T00:21:54;10.52;;;1.23;;
9783;SDS011;4931;44.874;-1.092;2022-09-29T00:26:39;7.70;;;1.00;;
9783;SDS011;4931;44.874;-1.092;2022-09-29T00:31:28;8.50;;;0.95;;
9783;SDS011;4931;44.874;-1.092;2022-09-29T00:36:18;7.07;;;1.15;;
9783;SDS011;4931;44.874;-1.092;2022-09-29T00:41:05;6.30;;;0.82;;
9783;SDS011;4931;44.874;-1.092;2022-09-29T00:45:51;5.22;;;0.90;;
9783;SDS011;4931;44.874;-1.092;2022-09-29T00:50:39;5.43;;;0.70;;
9783;SDS011;4931;44.874;-1.092;2022-09-29T00:55:32;8.20;;;1.10;;
9783;SDS011;4931;44.874;-1.092;2022-09-29T01:00:22;8.30;;;1.05;;
9783;SDS011;4931;44.874;-1.092;2022-09-29T01:05:09;9.30;;;1.10;;
9783;SDS011;4931;44.874;-1.092;2022-09-29T01:09:58;7.47;;;1.25;;
9783;SDS011;4931;44.874;-1.092;2022-09-29T01:14:46;5.65;;;1.13;;
9783;SDS011;4931;44.874;-1.092;2022-09-29T01:19:34;10.55;;;1.17;;
9783;SDS011;4931;44.874;-1.092;2022-09-29T01:24:35;8.52;;;1.10;;
9783;SDS011;4931;44.874;-1.092;2022-09-29T01:29:57;8.32;;;1.17;;
9783;SDS011;4931;44.874;-1.092;2022-09-29T01:34:53;8.85;;;1.50;;
9783;SDS011;4931;44.874;-1.092;2022-09-29T01:39:50;7.38;;;1.55;;
9783;SDS011;4931;44.874;-1.092;2022-09-29T01:44:44;12.82;;;1.63;;
9783;SDS011;4931;44.874;-1.092;2022-09-29T01:49:36;9.63;;;1.50;;
9783;SDS011;4931;44.874;-1.092;2022-09-29T01:54:35;8.47;;;1.33;;
9783;SDS011;4931;44.874;-1.092;2022-09-29T01:59:29;8.18;;;1.50;;
9783;SDS011;4931;44.874;-1.092;2022-09-29T02:04:22;9.07;;;1.50;;
9783;SDS011;4931;44.874;-1.092;2022-09-29T02:09:11;10.70;;;1.65;;
9783;SDS011;4931;44.874;-1.092;2022-09-29T02:14:04;12.13;;;1.67;;
9783;SDS011;4931;44.874;-1.092;2022-09-29T02:18:56;10.60;;;2.00;;
9783;SDS011;4931;44.874;-1.092;2022-09-29T02:23:46;11.48;;;1.67;;
9783;SDS011;4931;44.874;-1.092;2022-09-29T02:28:31;9.75;;;1.50;;
9783;SDS011;4931;44.874;-1.092;2022-09-29T02:33:20;11.13;;;1.95;;
9783;SDS011;4931;44.874;-1.092;2022-09-29T02:38:08;9.13;;;1.48;;
9783;SDS011;4931;44.874;-1.092;2022-09-29T02:43:06;11.52;;;2.10;;
9783;SDS011;4931;44.874;-1.092;2022-09-29T02:48:07;7.80;;;1.60;;
9783;SDS011;4931;44.874;-1.092;2022-09-29T02:53:10;7.22;;;1.95;;
9783;SDS011;4931;44.874;-1.092;2022-09-29T02:58:05;8.68;;;1.48;;
9783;SDS011;4931;44.874;-1.092;2022-09-29T03:02:55;9.23;;;1.70;;
9783;SDS011;4931;44.874;-1.092;2022-09-29T03:07:43;7.78;;;1.60;;
9783;SDS011;4931;44.874;-1.092;2022-09-29T03:12:31;7.40;;;1.45;;
9783;SDS011;4931;44.874;-1.092;2022-09-29T03:17:16;6.45;;;1.42;;
9783;SDS011;4931;44.874;-1.092;2022-09-29T03:22:01;9.68;;;1.92;;
9783;SDS011;4931;44.874;-1.092;2022-09-29T03:26:47;13.38;;;1.70;;
9783;SDS011;4931;44.874;-1.092;2022-09-29T03:31:34;12.25;;;1.45;;
9783;SDS011;4931;44.874;-1.092;2022-09-29T03:36:20;7.05;;;1.48;;
9783;SDS011;4931;44.874;-1.092;2022-09-29T03:41:05;8.70;;;1.52;;
9783;SDS011;4931;44.874;-1.092;2022-09-29T03:45:51;9.15;;;1.77;;
9783;SDS011;4931;44.874;-1.092;2022-09-29T03:50:41;10.25;;;1.40;;
9783;SDS011;4931;44.874;-1.092;2022-09-29T03:55:26;9.93;;;1.70;;
9783;SDS011;4931;44.874;-1.092;2022-09-29T04:00:12;7.90;;;1.38;;
9783;SDS011;4931;44.874;-1.092;2022-09-29T04:04:58;11.70;;;1.83;;
9783;SDS011;4931;44.874;-1.092;2022-09-29T04:09:46;8.82;;;1.50;;
9783;SDS011;4931;44.874;-1.092;2022-09-29T04:14:31;7.30;;;1.77;;
9783;SDS011;4931;44.874;-1.092;2022-09-29T04:19:16;11.70;;;1.92;;
9783;SDS011;4931;44.874;-1.092;2022-09-29T04:24:01;11.98;;;1.67;;
9783;SDS011;4931;44.874;-1.092;2022-09-29T04:28:49;11.23;;;2.25;;
9783;SDS011;4931;44.874;-1.092;2022-09-29T04:33:34;16.13;;;2.22;;
9783;SDS011;4931;44.874;-1.092;2022-09-29T04:38:20;10.77;;;1.65;;
9783;SDS011;4931;44.874;-1.092;2022-09-29T04:43:05;10.38;;;1.40;;
9783;SDS011;4931;44.874;-1.092;2022-09-29T04:47:53;8.70;;;1.33;;
9783;SDS011;4931;44.874;-1.092;2022-09-29T04:52:40;7.40;;;1.40;;
9783;SDS011;4931;44.874;-1.092;2022-09-29T04:57:26;10.57;;;1.17;;
9783;SDS011;4931;44.874;-1.092;2022-09-29T05:02:11;9.60;;;1.35;;
9783;SDS011;4931;44.874;-1.092;2022-09-29T05:06:59;10.15;;;1.20;;
9783;SDS011;4931;44.874;-1.092;2022-09-29T05:11:44;8.35;;;1.45;;
9783;SDS011;4931;44.874;-1.092;2022-09-29T05:16:29;7.20;;;1.50;;
9783;SDS011;4931;44.874;-1.092;2022-09-29T05:21:15;8.48;;;1.50;;
9783;SDS011;4931;44.874;-1.092;2022-09-29T05:26:12;11.55;;;1.98;;
9783;SDS011;4931;44.874;-1.092;2022-09-29T05:30:59;14.90;;;3.53;;
9783;SDS011;4931;44.874;-1.092;2022-09-29T05:35:45;11.70;;;2.88;;
9783;SDS011;4931;44.874;-1.092;2022-09-29T05:40:30;10.25;;;1.85;;
9783;SDS011;4931;44.874;-1.092;2022-09-29T05:45:18;8.75;;;2.08;;
9783;SDS011;4931;44.874;-1.092;2022-09-29T05:50:04;10.50;;;1.95;;
9783;SDS011;4931;44.874;-1.092;2022-09-29T05:54:50;9.23;;;2.25;;
9783;SDS011;4931;44.874;-1.092;2022-09-29T05:59:35;8.75;;;1.90;;
9783;SDS011;4931;44.874;-1.092;2022-09-29T06:04:25;11.13;;;2.75;;
9783;SDS011;4931;44.874;-1.092;2022-09-29T06:09:10;10.93;;;2.30;;
9783;SDS011;4931;44.874;-1.092;2022-09-29T06:13:55;10.45;;;3.50;;
9783;SDS011;4931;44.874;-1.092;2022-09-29T06:18:40;10.48;;;3.42;;
9783;SDS011;4931;44.874;-1.092;2022-09-29T06:23:29;9.25;;;2.28;;
9783;SDS011;4931;44.874;-1.092;2022-09-29T06:28:14;12.18;;;3.00;;
9783;SDS011;4931;44.874;-1.092;2022-09-29T06:32:59;16.13;;;6.13;;
9783;SDS011;4931;44.874;-1.092;2022-09-29T06:37:44;9.32;;;3.10;;
9783;SDS011;4931;44.874;-1.092;2022-09-29T06:42:32;11.20;;;2.65;;
9783;SDS011;4931;44.874;-1.092;2022-09-29T06:47:17;13.07;;;3.85;;
9783;SDS011;4931;44.874;-1.092;2022-09-29T06:52:03;11.20;;;2.95;;
9783;SDS011;4931;44.874;-1.092;2022-09-29T06:57:01;13.52;;;3.15;;
9783;SDS011;4931;44.874;-1.092;2022-09-29T07:01:49;9.13;;;2.45;;
9783;SDS011;4931;44.874;-1.092;2022-09-29T07:06:34;8.70;;;2.35;;
9783;SDS011;4931;44.874;-1.092;2022-09-29T07:11:19;18.88;;;3.58;;
9783;SDS011;4931;44.874;-1.092;2022-09-29T07:16:05;10.80;;;2.80;;
9783;SDS011;4931;44.874;-1.092;2022-09-29T07:20:54;12.38;;;2.85;;
9783;SDS011;4931;44.874;-1.092;2022-09-29T07:25:40;15.82;;;3.53;;
9783;SDS011;4931;44.874;-1.092;2022-09-29T07:30:33;10.60;;;2.40;;
9783;SDS011;4931;44.874;-1.092;2022-09-29T07:35:21;13.48;;;2.35;;
9783;SDS011;4931;44.874;-1.092;2022-09-29T07:40:10;12.05;;;2.30;;
9783;SDS011;4931;44.874;-1.092;2022-09-29T07:44:55;10.93;;;2.35;;
9783;SDS011;4931;44.874;-1.092;2022-09-29T07:49:40;10.52;;;2.20;;
9783;SDS011;4931;44.874;-1.092;2022-09-29T07:54:25;10.88;;;2.15;;
9783;SDS011;4931;44.874;-1.092;2022-09-29T07:59:14;10.88;;;2.30;;
9783;SDS011;4931;44.874;-1.092;2022-09-29T08:03:59;6.32;;;1.80;;
9783;SDS011;4931;44.874;-1.092;2022-09-29T08:08:45;11.48;;;1.92;;
9783;SDS011;4931;44.874;-1.092;2022-09-29T08:13:45;9.43;;;1.40;;
9783;SDS011;4931;44.874;-1.092;2022-09-29T08:18:34;5.88;;;1.48;;
9783;SDS011;4931;44.874;-1.092;2022-09-29T08:23:19;8.88;;;1.85;;
9783;SDS011;4931;44.874;-1.092;2022-09-29T08:28:04;4.93;;;1.10;;
9783;SDS011;4931;44.874;-1.092;2022-09-29T08:32:53;5.50;;;0.93;;
9783;SDS011;4931;44.874;-1.092;2022-09-29T08:37:42;7.68;;;1.23;;
9783;SDS011;4931;44.874;-1.092;2022-09-29T08:42:28;5.82;;;1.05;;
9783;SDS011;4931;44.874;-1.092;2022-09-29T08:47:31;8.35;;;1.13;;
9783;SDS011;4931;44.874;-1.092;2022-09-29T08:52:28;8.85;;;1.45;;
9783;SDS011;4931;44.874;-1.092;2022-09-29T08:57:35;7.40;;;1.42;;
9783;SDS011;4931;44.874;-1.092;2022-09-29T09:02:37;7.53;;;1.48;;
9783;SDS011;4931;44.874;-1.092;2022-09-29T09:07:44;5.20;;;1.23;;
9783;SDS011;4931;44.874;-1.092;2022-09-29T09:18:19;10.77;;;1.10;;
9783;SDS011;4931;44.874;-1.092;2022-09-29T09:23:24;10.63;;;1.50;;
9783;SDS011;4931;44.874;-1.092;2022-09-29T09:28:15;5.15;;;0.93;;
9783;SDS011;4931;44.874;-1.092;2022-09-29T09:33:04;5.97;;;0.90;;
9783;SDS011;4931;44.874;-1.092;2022-09-29T09:38:12;4.63;;;0.90;;
9783;SDS011;4931;44.874;-1.092;2022-09-29T09:43:02;4.13;;;1.10;;
9783;SDS011;4931;44.874;-1.092;2022-09-29T09:47:52;6.00;;;1.02;;
9783;SDS011;4931;44.874;-1.092;2022-09-29T09:52:43;4.30;;;0.70;;
9783;SDS011;4931;44.874;-1.092;2022-09-29T09:57:42;4.50;;;1.08;;
9783;SDS011;4931;44.874;-1.092;2022-09-29T10:02:42;5.72;;;0.60;;
9783;SDS011;4931;44.874;-1.092;2022-09-29T10:07:29;5.05;;;0.60;;
9783;SDS011;4931;44.874;-1.092;2022-09-29T10:12:15;4.50;;;0.70;;
9783;SDS011;4931;44.874;-1.092;2022-09-29T10:17:05;2.47;;;0.82;;
9783;SDS011;4931;44.874;-1.092;2022-09-29T10:21:57;4.45;;;0.47;;
9783;SDS011;4931;44.874;-1.092;2022-09-29T10:26:57;4.50;;;0.68;;
9783;SDS011;4931;44.874;-1.092;2022-09-29T10:31:56;17.50;;;2.58;;
9783;SDS011;4931;44.874;-1.092;2022-09-29T10:36:51;7.15;;;0.95;;
9783;SDS011;4931;44.874;-1.092;2022-09-29T10:41:49;7.20;;;0.87;;
9783;SDS011;4931;44.874;-1.092;2022-09-29T10:46:37;2.47;;;0.60;;
9783;SDS011;4931;44.874;-1.092;2022-09-29T10:51:32;3.83;;;0.55;;
9783;SDS011;4931;44.874;-1.092;2022-09-29T10:56:20;3.80;;;0.70;;
9783;SDS011;4931;44.874;-1.092;2022-09-29T11:01:11;5.38;;;1.10;;
9783;SDS011;4931;44.874;-1.092;2022-09-29T11:05:58;4.70;;;1.60;;
9783;SDS011;4931;44.874;-1.092;2022-09-29T11:10:46;5.18;;;1.48;;
9783;SDS011;4931;44.874;-1.092;2022-09-29T11:15:39;3.33;;;1.15;;
9783;SDS011;4931;44.874;-1.092;2022-09-29T11:20:27;3.03;;;0.80;;
9783;SDS011;4931;44.874;-1.092;2022-09-29T11:25:27;4.18;;;0.80;;
9783;SDS011;4931;44.874;-1.092;2022-09-29T11:30:32;3.67;;;0.70;;
9783;SDS011;4931;44.874;-1.092;2022-09-29T11:35:30;3.58;;;0.88;;
9783;SDS011;4931;44.874;-1.092;2022-09-29T11:40:25;4.07;;;0.75;;
9783;SDS011;4931;44.874;-1.092;2022-09-29T11:45:15;6.47;;;0.75;;
9783;SDS011;4931;44.874;-1.092;2022-09-29T11:50:11;2.75;;;0.60;;
9783;SDS011;4931;44.874;-1.092;2022-09-29T11:55:15;2.70;;;0.80;;
9783;SDS011;4931;44.874;-1.092;2022-09-29T12:00:15;3.30;;;0.60;;
9783;SDS011;4931;44.874;-1.092;2022-09-29T12:05:04;2.78;;;0.57;;
9783;SDS011;4931;44.874;-1.092;2022-09-29T12:15:32;1.73;;;0.68;;
9783;SDS011;4931;44.874;-1.092;2022-09-29T12:20:28;4.25;;;0.70;;
9783;SDS011;4931;44.874;-1.092;2022-09-29T12:25:16;7.28;;;0.80;;
9783;SDS011;4931;44.874;-1.092;2022-09-29T12:30:13;4.13;;;0.88;;
9783;SDS011;4931;44.874;-1.092;2022-09-29T12:35:08;6.70;;;1.38;;
9783;SDS011;4931;44.874;-1.092;2022-09-29T12:40:02;5.70;;;1.02;;
9783;SDS011;4931;44.874;-1.092;2022-09-29T12:44:55;5.03;;;1.05;;
9783;SDS011;4931;44.874;-1.092;2022-09-29T12:49:56;5.57;;;1.17;;
9783;SDS011;4931;44.874;-1.092;2022-09-29T12:54:50;9.90;;;1.50;;
9783;SDS011;4931;44.874;-1.092;2022-09-29T12:59:39;8.07;;;1.05;;
9783;SDS011;4931;44.874;-1.092;2022-09-29T13:20:19;6.35;;;1.20;;
9783;SDS011;4931;44.874;-1.092;2022-09-29T13:25:34;8.93;;;1.55;;
9783;SDS011;4931;44.874;-1.092;2022-09-29T13:30:31;7.38;;;0.95;;
9783;SDS011;4931;44.874;-1.092;2022-09-29T13:35:19;7.63;;;1.00;;
9783;SDS011;4931;44.874;-1.092;2022-09-29T13:40:14;8.45;;;1.02;;
9783;SDS011;4931;44.874;-1.092;2022-09-29T13:50:44;7.90;;;1.08;;
9783;SDS011;4931;44.874;-1.092;2022-09-29T14:00:35;6.53;;;1.02;;
9783;SDS011;4931;44.874;-1.092;2022-09-29T14:05:36;5.38;;;0.98;;
9783;SDS011;4931;44.874;-1.092;2022-09-29T14:10:41;6.95;;;0.82;;
9783;SDS011;4931;44.874;-1.092;2022-09-29T14:15:31;5.00;;;1.10;;
9783;SDS011;4931;44.874;-1.092;2022-09-29T14:20:21;2.75;;;0.57;;
9783;SDS011;4931;44.874;-1.092;2022-09-29T14:30:42;4.90;;;0.82;;
9783;SDS011;4931;44.874;-1.092;2022-09-29T14:35:32;4.55;;;0.90;;
9783;SDS011;4931;44.874;-1.092;2022-09-29T14:40:18;6.32;;;0.80;;
9783;SDS011;4931;44.874;-1.092;2022-09-29T14:45:13;7.03;;;0.80;;
9783;SDS011;4931;44.874;-1.092;2022-09-29T14:55:38;6.85;;;0.70;;
9783;SDS011;4931;44.874;-1.092;2022-09-29T15:00:33;3.95;;;0.77;;
9783;SDS011;4931;44.874;-1.092;2022-09-29T15:05:32;5.10;;;0.77;;
9783;SDS011;4931;44.874;-1.092;2022-09-29T15:10:22;3.83;;;0.50;;
9783;SDS011;4931;44.874;-1.092;2022-09-29T15:20:17;4.97;;;1.17;;
9783;SDS011;4931;44.874;-1.092;2022-09-29T15:25:14;6.70;;;0.65;;
9783;SDS011;4931;44.874;-1.092;2022-09-29T15:30:12;4.07;;;0.68;;
9783;SDS011;4931;44.874;-1.092;2022-09-29T15:35:00;4.88;;;0.60;;
9783;SDS011;4931;44.874;-1.092;2022-09-29T15:39:48;2.70;;;0.40;;
9783;SDS011;4931;44.874;-1.092;2022-09-29T15:44:38;4.50;;;0.90;;
9783;SDS011;4931;44.874;-1.092;2022-09-29T15:49:28;7.70;;;1.20;;
9783;SDS011;4931;44.874;-1.092;2022-09-29T15:54:13;5.47;;;0.70;;
9783;SDS011;4931;44.874;-1.092;2022-09-29T15:58:59;6.53;;;0.90;;
9783;SDS011;4931;44.874;-1.092;2022-09-29T16:03:48;4.38;;;0.80;;
9783;SDS011;4931;44.874;-1.092;2022-09-29T16:08:39;3.75;;;0.70;;
9783;SDS011;4931;44.874;-1.092;2022-09-29T16:13:27;4.85;;;0.75;;
9783;SDS011;4931;44.874;-1.092;2022-09-29T16:18:22;4.68;;;0.70;;
9783;SDS011;4931;44.874;-1.092;2022-09-29T16:23:17;5.88;;;0.70;;
9783;SDS011;4931;44.874;-1.092;2022-09-29T16:28:04;6.65;;;1.05;;
9783;SDS011;4931;44.874;-1.092;2022-09-29T16:33:11;3.20;;;0.77;;
9783;SDS011;4931;44.874;-1.092;2022-09-29T16:37:57;9.23;;;1.00;;
9783;SDS011;4931;44.874;-1.092;2022-09-29T16:42:46;6.80;;;0.70;;
9783;SDS011;4931;44.874;-1.092;2022-09-29T16:47:36;4.68;;;1.05;;
9783;SDS011;4931;44.874;-1.092;2022-09-29T16:52:23;5.68;;;0.85;;
9783;SDS011;4931;44.874;-1.092;2022-09-29T16:57:20;4.75;;;0.80;;
9783;SDS011;4931;44.874;-1.092;2022-09-29T17:02:11;6.35;;;0.68;;
9783;SDS011;4931;44.874;-1.092;2022-09-29T17:06:56;4.82;;;0.60;;
9783;SDS011;4931;44.874;-1.092;2022-09-29T17:11:42;4.70;;;0.70;;
9783;SDS011;4931;44.874;-1.092;2022-09-29T17:16:29;5.00;;;0.60;;
9783;SDS011;4931;44.874;-1.092;2022-09-29T17:21:17;14.10;;;1.88;;
9783;SDS011;4931;44.874;-1.092;2022-09-29T17:26:05;4.03;;;0.60;;
9783;SDS011;4931;44.874;-1.092;2022-09-29T17:31:13;5.20;;;0.80;;
9783;SDS011;4931;44.874;-1.092;2022-09-29T17:36:00;8.05;;;1.13;;
9783;SDS011;4931;44.874;-1.092;2022-09-29T17:40:50;5.32;;;1.17;;
9783;SDS011;4931;44.874;-1.092;2022-09-29T17:45:38;4.78;;;0.80;;
9783;SDS011;4931;44.874;-1.092;2022-09-29T17:50:26;5.32;;;0.70;;
9783;SDS011;4931;44.874;-1.092;2022-09-29T17:55:13;5.07;;;0.60;;
9783;SDS011;4931;44.874;-1.092;2022-09-29T18:00:01;6.53;;;0.80;;
9783;SDS011;4931;44.874;-1.092;2022-09-29T18:04:47;7.13;;;1.17;;
9783;SDS011;4931;44.874;-1.092;2022-09-29T18:09:35;7.35;;;1.08;;
9783;SDS011;4931;44.874;-1.092;2022-09-29T18:14:20;8.05;;;0.98;;
9783;SDS011;4931;44.874;-1.092;2022-09-29T18:19:11;5.75;;;1.00;;
9783;SDS011;4931;44.874;-1.092;2022-09-29T18:23:59;7.78;;;0.80;;
9783;SDS011;4931;44.874;-1.092;2022-09-29T18:28:46;6.25;;;0.77;;
9783;SDS011;4931;44.874;-1.092;2022-09-29T18:33:33;6.30;;;0.70;;
9783;SDS011;4931;44.874;-1.092;2022-09-29T18:38:21;7.90;;;1.45;;
9783;SDS011;4931;44.874;-1.092;2022-09-29T18:43:08;4.93;;;0.85;;
9783;SDS011;4931;44.874;-1.092;2022-09-29T18:47:56;3.60;;;0.70;;
9783;SDS011;4931;44.874;-1.092;2022-09-29T18:52:44;4.55;;;1.38;;
9783;SDS011;4931;44.874;-1.092;2022-09-29T18:57:33;4.00;;;0.98;;
9783;SDS011;4931;44.874;-1.092;2022-09-29T19:02:18;7.32;;;1.63;;
9783;SDS011;4931;44.874;-1.092;2022-09-29T19:07:04;8.35;;;1.10;;
9783;SDS011;4931;44.874;-1.092;2022-09-29T19:11:52;7.85;;;0.80;;
9783;SDS011;4931;44.874;-1.092;2022-09-29T19:16:41;6.82;;;0.98;;
9783;SDS011;4931;44.874;-1.092;2022-09-29T19:21:26;6.07;;;1.20;;
9783;SDS011;4931;44.874;-1.092;2022-09-29T19:26:14;3.60;;;0.70;;
9783;SDS011;4931;44.874;-1.092;2022-09-29T19:31:03;6.22;;;1.25;;
9783;SDS011;4931;44.874;-1.092;2022-09-29T19:35:53;5.35;;;1.45;;
9783;SDS011;4931;44.874;-1.092;2022-09-29T19:40:38;6.68;;;1.10;;
9783;SDS011;4931;44.874;-1.092;2022-09-29T19:45:23;4.78;;;0.70;;
9783;SDS011;4931;44.874;-1.092;2022-09-29T19:50:08;4.10;;;0.93;;
9783;SDS011;4931;44.874;-1.092;2022-09-29T19:55:09;4.88;;;0.90;;
9783;SDS011;4931;44.874;-1.092;2022-09-29T19:59:55;4.75;;;0.75;;
9783;SDS011;4931;44.874;-1.092;2022-09-29T20:04:44;4.72;;;0.82;;
9783;SDS011;4931;44.874;-1.092;2022-09-29T20:09:29;6.85;;;1.25;;
9783;SDS011;4931;44.874;-1.092;2022-09-29T20:14:18;6.13;;;0.90;;
9783;SDS011;4931;44.874;-1.092;2022-09-29T20:19:06;5.47;;;1.10;;
9783;SDS011;4931;44.874;-1.092;2022-09-29T20:23:54;4.03;;;1.63;;
9783;SDS011;4931;44.874;-1.092;2022-09-29T20:28:41;5.28;;;2.10;;
9783;SDS011;4931;44.874;-1.092;2022-09-29T20:33:30;5.82;;;1.83;;
9783;SDS011;4931;44.874;-1.092;2022-09-29T20:38:16;7.32;;;3.40;;
9783;SDS011;4931;44.874;-1.092;2022-09-29T20:43:02;10.07;;;5.63;;
9783;SDS011;4931;44.874;-1.092;2022-09-29T20:47:47;13.63;;;7.85;;
9783;SDS011;4931;44.874;-1.092;2022-09-29T20:52:35;11.98;;;4.80;;
9783;SDS011;4931;44.874;-1.092;2022-09-29T20:57:20;9.15;;;5.70;;
9783;SDS011;4931;44.874;-1.092;2022-09-29T21:02:07;19.80;;;8.13;;
9783;SDS011;4931;44.874;-1.092;2022-09-29T21:06:53;18.15;;;7.70;;
9783;SDS011;4931;44.874;-1.092;2022-09-29T21:11:41;7.80;;;2.50;;
9783;SDS011;4931;44.874;-1.092;2022-09-29T21:16:27;10.32;;;1.88;;
9783;SDS011;4931;44.874;-1.092;2022-09-29T21:21:13;9.43;;;1.38;;
9783;SDS011;4931;44.874;-1.092;2022-09-29T21:25:59;9.40;;;1.70;;
9783;SDS011;4931;44.874;-1.092;2022-09-29T21:30:48;8.18;;;1.33;;
9783;SDS011;4931;44.874;-1.092;2022-09-29T21:35:33;7.40;;;1.08;;
9783;SDS011;4931;44.874;-1.092;2022-09-29T21:40:18;7.82;;;1.08;;
9783;SDS011;4931;44.874;-1.092;2022-09-29T21:45:04;7.40;;;0.90;;
9783;SDS011;4931;44.874;-1.092;2022-09-29T21:49:54;7.63;;;0.80;;
9783;SDS011;4931;44.874;-1.092;2022-09-29T21:54:39;5.07;;;0.80;;
9783;SDS011;4931;44.874;-1.092;2022-09-29T21:59:24;5.57;;;0.65;;
9783;SDS011;4931;44.874;-1.092;2022-09-29T22:04:10;4.30;;;0.77;;
9783;SDS011;4931;44.874;-1.092;2022-09-29T22:08:59;2.22;;;0.52;;
9783;SDS011;4931;44.874;-1.092;2022-09-29T22:13:47;3.75;;;0.65;;
9783;SDS011;4931;44.874;-1.092;2022-09-29T22:23:22;2.60;;;0.60;;
9783;SDS011;4931;44.874;-1.092;2022-09-29T22:28:11;5.68;;;0.70;;
9783;SDS011;4931;44.874;-1.092;2022-09-29T22:32:57;3.40;;;0.55;;
9783;SDS011;4931;44.874;-1.092;2022-09-29T22:37:42;5.15;;;0.80;;
9783;SDS011;4931;44.874;-1.092;2022-09-29T22:42:27;2.88;;;0.60;;
9783;SDS011;4931;44.874;-1.092;2022-09-29T22:47:15;8.35;;;0.77;;
9783;SDS011;4931;44.874;-1.092;2022-09-29T22:52:00;9.20;;;1.08;;
9783;SDS011;4931;44.874;-1.092;2022-09-29T22:56:46;5.38;;;1.02;;
9783;SDS011;4931;44.874;-1.092;2022-09-29T23:01:31;2.42;;;0.75;;
9783;SDS011;4931;44.874;-1.092;2022-09-29T23:06:20;2.63;;;0.68;;
9783;SDS011;4931;44.874;-1.092;2022-09-29T23:11:06;3.20;;;0.80;;
9783;SDS011;4931;44.874;-1.092;2022-09-29T23:15:52;4.93;;;0.88;;
9783;SDS011;4931;44.874;-1.092;2022-09-29T23:20:37;2.92;;;0.65;;
9783;SDS011;4931;44.874;-1.092;2022-09-29T23:25:25;5.53;;;0.95;;
9783;SDS011;4931;44.874;-1.092;2022-09-29T23:30:11;2.75;;;1.00;;
9783;SDS011;4931;44.874;-1.092;2022-09-29T23:34:57;3.38;;;1.05;;
9783;SDS011;4931;44.874;-1.092;2022-09-29T23:39:42;7.60;;;3.00;;
9783;SDS011;4931;44.874;-1.092;2022-09-29T23:44:30;5.07;;;2.03;;
9783;SDS011;4931;44.874;-1.092;2022-09-29T23:49:17;6.97;;;1.52;;
9783;SDS011;4931;44.874;-1.092;2022-09-29T23:54:04;5.82;;;1.30;;
9783;SDS011;4931;44.874;-1.092;2022-09-29T23:58:50;3.65;;;1.00;;
